Time;durP1;ratioP1;P1;durP2;ratioP2;P2;SDS_P1;SDS_P2;PMS_P1;PMS_P2;Temp;Humidity;BMP_temperature;BMP_pressure;BME280_temperature;BME280_humidity;BME280_pressure;Samples;Min_cycle;Max_cycle;Signal;HPM_P1;HPM_P2
2022/06/26 00:02:13;;;;;;;6.62;6.03;;;;;;;18.93;72.68;100340.02;1773670;80;21200;-83
2022/06/26 00:04:40;;;;;;;6.85;6.15;;;;;;;18.89;72.66;100338.53;1773225;80;21014;-83
2022/06/26 00:07:07;;;;;;;7.40;6.50;;;;;;;18.82;72.75;100335.13;1773520;80;21046;-82
2022/06/26 00:09:35;;;;;;;9.58;6.25;;;;;;;18.79;72.96;100335.33;1773880;80;20979;-82
2022/06/26 00:12:03;;;;;;;6.72;6.03;;;;;;;18.75;73.00;100334.70;1773528;80;21037;-82
2022/06/26 00:14:30;;;;;;;10.58;6.70;;;;;;;18.71;73.22;100337.20;1759783;80;21500;-82
2022/06/26 00:16:57;;;;;;;8.30;7.15;;;;;;;18.68;73.23;100332.11;1771424;80;21054;-82
2022/06/26 00:19:25;;;;;;;6.92;5.90;;;;;;;18.62;73.31;100328.55;1773709;80;21018;-82
2022/06/26 00:21:53;;;;;;;7.08;6.35;;;;;;;18.57;73.32;100332.00;1773515;80;21447;-82
2022/06/26 00:24:20;;;;;;;8.48;6.17;;;;;;;18.50;73.40;100335.10;1773688;80;21065;-81
2022/06/26 00:26:47;;;;;;;7.37;6.60;;;;;;;18.45;73.59;100334.58;1773396;80;21108;-81
2022/06/26 00:29:14;;;;;;;7.00;6.30;;;;;;;18.40;73.72;100334.08;1773547;80;21538;-81
2022/06/26 00:31:42;;;;;;;8.20;6.33;;;;;;;18.36;73.83;100333.91;1773388;80;21085;-82
2022/06/26 00:34:09;;;;;;;7.30;6.42;;;;;;;18.33;74.01;100331.96;1760637;80;21593;-81
2022/06/26 00:36:37;;;;;;;8.88;6.60;;;;;;;18.32;74.42;100331.12;1733893;82;21001;-82
2022/06/26 00:39:04;;;;;;;7.83;6.15;;;;;;;18.30;74.31;100327.72;1706912;84;21135;-81
2022/06/26 00:41:31;;;;;;;7.22;6.53;;;;;;;18.25;74.46;100329.84;1736729;82;22196;-82
2022/06/26 00:43:58;;;;;;;10.25;6.53;;;;;;;18.24;74.63;100328.16;1736739;81;21060;-81
2022/06/26 00:46:26;;;;;;;7.35;6.35;;;;;;;18.21;74.67;100334.52;1707181;84;21568;-81
2022/06/26 00:48:53;;;;;;;7.17;6.47;;;;;;;18.18;74.84;100333.41;1736824;82;21503;-81
2022/06/26 00:51:22;;;;;;;7.50;6.00;;;;;;;18.18;74.93;100333.86;1707131;83;21133;-82
2022/06/26 00:53:49;;;;;;;8.23;6.53;;;;;;;18.14;75.00;100334.56;1736788;81;21048;-82
2022/06/26 00:56:17;;;;;;;8.75;6.53;;;;;;;18.13;75.15;100339.52;1707294;82;21041;-81
2022/06/26 00:58:44;;;;;;;7.20;6.37;;;;;;;18.09;75.00;100338.01;1736831;81;21549;-82
2022/06/26 01:01:12;;;;;;;9.53;7.05;;;;;;;18.02;75.03;100334.95;1737005;81;21542;-82
2022/06/26 01:03:39;;;;;;;7.92;6.45;;;;;;;17.99;75.35;100336.48;1707029;83;21123;-82
2022/06/26 01:06:07;;;;;;;7.30;6.62;;;;;;;17.94;75.28;100337.27;1737055;81;21044;-82
2022/06/26 01:08:35;;;;;;;7.40;6.55;;;;;;;17.91;75.48;100335.32;1707193;84;21018;-82
2022/06/26 01:11:17;;;;;;;10.15;6.50;;;;;;;17.87;75.60;100341.29;1737139;81;21032;-83
2022/06/26 01:13:32;;;;;;;;;;;;;;;17.83;75.69;100341.98;1707734;83;21434;-82
2022/06/26 01:16:00;;;;;;;8.98;6.05;;;;;;;17.80;76.16;100350.16;1737059;81;21094;-82
2022/06/26 01:18:27;;;;;;;7.92;6.33;;;;;;;17.78;75.98;100347.20;1706961;83;21056;-82
2022/06/26 01:20:55;;;;;;;10.70;7.08;;;;;;;17.75;76.04;100348.25;1737156;81;21515;-82
2022/06/26 01:23:23;;;;;;;6.75;5.87;;;;;;;17.74;75.95;100351.02;1707181;83;21005;-82
2022/06/26 01:25:50;;;;;;;7.17;6.37;;;;;;;17.70;76.27;100356.98;1737010;81;21564;-82
2022/06/26 01:28:18;;;;;;;8.10;6.47;;;;;;;17.70;76.25;100356.14;1707040;84;21135;-82
2022/06/26 01:30:46;;;;;;;8.05;6.37;;;;;;;17.66;76.27;100352.02;1736789;81;21049;-83
2022/06/26 01:33:14;;;;;;;7.78;6.92;;;;;;;17.67;76.65;100353.70;1707038;83;21033;-82
2022/06/26 01:35:41;;;;;;;7.17;6.45;;;;;;;17.70;76.76;100358.31;1772265;79;21009;-83
2022/06/26 01:38:15;;;;;;;7.58;6.85;;;;;;;17.70;76.69;100357.47;1785201;80;21487;-83
2022/06/26 01:40:45;;;;;;;7.03;6.33;;;;;;;17.68;76.80;100360.23;1783220;78;21079;-83
2022/06/26 01:43:17;;;;;;;7.47;6.28;;;;;;;17.66;76.52;100357.31;1778610;80;20990;-83
2022/06/26 01:45:48;;;;;;;7.78;6.97;;;;;;;17.60;76.72;100363.88;1787432;80;20983;-83
2022/06/26 01:48:17;;;;;;;8.80;7.47;;;;;;;17.60;76.93;100363.88;1780215;80;21506;-83
2022/06/26 01:50:45;;;;;;;10.65;6.40;;;;;;;17.57;76.92;100361.41;1747896;80;21071;-83
2022/06/26 01:53:14;;;;;;;10.50;7.58;;;;;;;17.50;76.71;100363.63;1774601;80;21121;-84
2022/06/26 01:55:43;;;;;;;8.75;6.67;;;;;;;17.47;77.05;100361.66;1741772;80;21116;-84
2022/06/26 01:58:13;;;;;;;;;;;;;;;17.42;76.78;100362.44;1775298;80;20993;-83
2022/06/26 02:00:43;;;;;;;8.45;6.50;;;;;;;17.35;77.02;100365.98;1765933;80;20163;-83
2022/06/26 02:03:16;;;;;;;9.25;7.00;;;;;;;17.26;76.73;100360.78;1755289;80;21053;-85
2022/06/26 02:05:45;;;;;;;9.38;6.72;;;;;;;17.21;76.95;100372.63;1766753;80;21093;-85
2022/06/26 02:08:14;;;;;;;9.53;6.62;;;;;;;17.21;76.95;100372.63;1741625;80;21019;-84
2022/06/26 02:13:37;;;;;;;10.32;7.47;;;;;;;17.06;77.01;100377.13;1769394;80;21036;-85
2022/06/26 02:16:20;;;;;;;7.67;6.60;;;;;;;17.06;77.27;100384.59;1741936;80;20987;-84
2022/06/26 02:18:51;;;;;;;10.63;6.47;;;;;;;17.01;77.00;100372.60;1774686;80;21100;-83
2022/06/26 02:21:22;;;;;;;7.20;6.50;;;;;;;16.96;77.31;100367.62;1741705;80;21039;-83
2022/06/26 02:23:52;;;;;;;10.88;7.50;;;;;;;16.87;77.59;100361.58;1741437;80;21047;-83
2022/06/26 02:26:21;;;;;;;8.33;6.80;;;;;;;16.87;77.59;100361.58;1758440;80;20998;-83
2022/06/26 02:28:50;;;;;;;10.35;7.30;;;;;;;16.88;77.53;100370.75;1751377;80;21591;-83
2022/06/26 02:31:18;;;;;;;7.75;6.95;;;;;;;16.87;77.77;100375.66;1741660;80;21950;-83
2022/06/26 02:33:45;;;;;;;8.63;7.72;;;;;;;16.86;77.70;100377.09;1768152;80;21025;-84
2022/06/26 02:36:15;;;;;;;8.40;7.50;;;;;;;16.85;78.00;100376.25;1781267;80;21037;-84
2022/06/26 02:38:42;;;;;;;9.23;7.80;;;;;;;16.85;78.04;100379.34;1757029;80;21035;-83
2022/06/26 02:41:09;;;;;;;11.35;8.33;;;;;;;16.84;77.96;100389.09;1769948;80;21007;-83
2022/06/26 02:43:37;;;;;;;10.78;8.18;;;;;;;16.79;78.10;100384.55;1749662;80;21102;-84
2022/06/26 02:46:05;;;;;;;12.58;8.53;;;;;;;16.74;77.98;100385.31;1748758;80;21541;-83
2022/06/26 02:48:33;;;;;;;8.85;7.40;;;;;;;16.71;78.04;100395.61;1763251;80;21523;-83
2022/06/26 02:51:00;;;;;;;10.30;7.33;;;;;;;16.67;78.01;100390.59;1753405;80;21051;-83
2022/06/26 02:53:28;;;;;;;10.60;7.87;;;;;;;16.63;78.08;100399.21;1773151;80;21695;-82
2022/06/26 02:55:55;;;;;;;10.30;7.67;;;;;;;16.60;78.28;100399.41;1741550;80;21077;-83
2022/06/26 02:58:24;;;;;;;9.38;7.60;;;;;;;16.56;78.19;100397.03;1741609;80;21480;-83
2022/06/26 03:00:53;;;;;;;8.90;8.00;;;;;;;16.54;78.27;100403.73;1740649;80;21015;-82
2022/06/26 03:03:20;;;;;;;10.90;7.70;;;;;;;16.51;78.33;100411.86;1778796;80;21053;-83
2022/06/26 03:05:48;;;;;;;10.35;8.53;;;;;;;16.44;78.37;100402.14;1785061;80;21001;-83
2022/06/26 03:08:15;;;;;;;8.88;7.80;;;;;;;16.44;78.37;100402.14;1753279;80;21121;-83
2022/06/26 03:10:42;;;;;;;9.38;8.48;;;;;;;16.47;78.65;100415.17;1764194;80;21692;-83
2022/06/26 03:13:09;;;;;;;10.38;8.40;;;;;;;16.48;78.94;100412.89;1741522;80;21015;-82
2022/06/26 03:15:36;;;;;;;10.00;9.10;;;;;;;16.55;79.60;100416.03;1755582;80;21450;-82
2022/06/26 03:18:04;;;;;;;10.72;8.40;;;;;;;16.55;79.60;100416.03;1786228;80;20998;-82
2022/06/26 03:20:31;;;;;;;10.25;9.13;;;;;;;16.53;79.47;100412.63;1770893;80;21086;-83
2022/06/26 03:22:59;;;;;;;10.40;8.95;;;;;;;16.58;79.48;100421.13;1741342;80;21584;-82
2022/06/26 03:25:26;;;;;;;10.45;9.08;;;;;;;16.59;79.52;100422.82;1741660;80;21035;-82
2022/06/26 03:27:54;;;;;;;10.55;9.23;;;;;;;16.58;79.44;100423.78;1741461;80;21015;-82
2022/06/26 03:30:21;;;;;;;9.78;8.88;;;;;;;16.58;79.69;100423.78;1741712;80;21505;-82
2022/06/26 03:32:51;;;;;;;10.88;8.73;;;;;;;16.62;79.93;100427.08;1740062;80;21249;-82
2022/06/26 03:35:19;;;;;;;9.58;8.60;;;;;;;16.66;80.06;100425.48;1741862;80;21064;-81
2022/06/26 03:37:47;;;;;;;10.48;9.13;;;;;;;16.69;79.95;100420.47;1729941;80;21007;-81
2022/06/26 03:40:14;;;;;;;10.30;9.15;;;;;;;16.70;80.12;100425.65;1761808;80;21061;-82
2022/06/26 03:42:42;;;;;;;9.85;8.85;;;;;;;16.78;80.47;100432.31;1767163;80;21060;-82
2022/06/26 03:45:10;;;;;;;10.15;9.20;;;;;;;16.78;80.47;100432.31;1735878;80;21612;-82
2022/06/26 03:47:38;;;;;;;13.80;9.73;;;;;;;16.81;80.52;100433.44;1740658;80;21034;-82
2022/06/26 03:50:06;;;;;;;10.93;9.90;;;;;;;16.85;80.81;100432.28;1759231;80;21033;-81
2022/06/26 03:52:34;;;;;;;12.40;10.80;;;;;;;16.93;80.89;100433.98;1766209;80;21035;-82
2022/06/26 03:55:02;;;;;;;12.25;9.73;;;;;;;17.01;81.18;100428.20;1730593;80;21351;-81
2022/06/26 03:57:31;;;;;;;12.58;9.75;;;;;;;17.04;81.18;100420.91;1730128;80;21075;-82
2022/06/26 03:59:59;;;;;;;13.25;10.58;;;;;;;17.10;81.29;100423.19;1733164;80;21534;-81
2022/06/26 04:02:44;;;;;;;11.33;10.18;;;;;;;17.17;81.54;100420.98;1745577;80;21075;-82
2022/06/26 04:05:13;;;;;;;10.13;9.13;;;;;;;17.25;81.67;100424.00;1753604;80;21513;-81
2022/06/26 04:07:41;;;;;;;10.95;9.80;;;;;;;17.31;81.73;100428.05;1749827;80;21101;-82
2022/06/26 04:10:22;;;;;;;10.45;9.45;;;;;;;17.37;81.86;100432.94;1766961;80;21606;-82
2022/06/26 04:12:50;;;;;;;11.60;10.50;;;;;;;17.42;81.75;100436.15;1756416;80;21026;-81
2022/06/26 04:15:18;;;;;;;10.78;9.70;;;;;;;17.44;82.12;100432.09;1732526;80;20999;-81
2022/06/26 04:17:45;;;;;;;10.58;9.58;;;;;;;17.52;81.95;100435.94;1730372;80;21008;-81
2022/06/26 04:20:14;;;;;;;12.23;10.60;;;;;;;17.57;82.04;100438.27;1761045;80;21038;-81
2022/06/26 04:22:44;;;;;;;13.57;11.17;;;;;;;17.65;82.16;100437.77;1762175;80;21120;-82
2022/06/26 04:25:13;;;;;;;11.22;10.13;;;;;;;17.73;82.32;100440.28;1733074;80;21027;-81
2022/06/26 04:27:41;;;;;;;14.47;10.98;;;;;;;17.82;82.34;100438.40;1729781;80;21110;-80
2022/06/26 04:30:09;;;;;;;11.85;9.98;;;;;;;17.88;82.30;100430.51;1740824;80;21041;-81
2022/06/26 04:32:38;;;;;;;14.73;10.85;;;;;;;17.96;82.41;100437.47;1730020;80;21580;-80
2022/06/26 04:35:08;;;;;;;13.95;10.55;;;;;;;18.06;82.51;100439.86;1730728;80;21018;-81
2022/06/26 04:37:40;;;;;;;16.27;11.38;;;;;;;18.18;82.66;100443.50;1741696;80;21577;-81
2022/06/26 04:40:11;;;;;;;12.85;10.78;;;;;;;18.29;82.59;100438.80;1741876;80;21034;-81
2022/06/26 04:42:41;;;;;;;11.83;9.00;;;;;;;18.37;82.54;100443.55;1762045;80;20999;-81
2022/06/26 04:45:10;;;;;;;12.30;11.10;;;;;;;18.47;82.54;100443.30;1781829;80;21263;-81
2022/06/26 04:47:39;;;;;;;14.13;10.20;;;;;;;18.56;82.59;100441.32;1714042;81;21122;-82
2022/06/26 04:50:11;;;;;;;13.32;10.75;;;;;;;18.67;82.58;100445.39;1708660;82;21127;-81
2022/06/26 04:52:38;;;;;;;12.05;10.80;;;;;;;18.77;82.55;100448.30;1711092;83;21463;-81
2022/06/26 04:55:06;;;;;;;13.88;10.20;;;;;;;18.88;82.51;100447.55;1737439;81;21100;-81
2022/06/26 04:57:35;;;;;;;12.13;10.90;;;;;;;18.93;82.38;100451.58;1738876;81;21079;-82
2022/06/26 05:00:06;;;;;;;12.85;10.90;;;;;;;19.01;82.59;100453.69;1728119;81;21277;-81
2022/06/26 05:02:33;;;;;;;12.30;11.00;;;;;;;19.09;82.58;100456.65;1740003;82;20946;-82
2022/06/26 05:05:18;;;;;;;11.22;9.93;;;;;;;19.18;82.53;100464.44;1738502;82;21113;-82
2022/06/26 05:07:49;;;;;;;12.55;11.35;;;;;;;19.27;82.46;100462.92;1734281;81;21096;-82
2022/06/26 05:10:19;;;;;;;13.83;12.43;;;;;;;19.34;82.37;100466.81;1720592;83;21055;-82
2022/06/26 05:12:48;;;;;;;12.78;11.40;;;;;;;19.41;82.23;100468.56;1715786;83;21259;-82
2022/06/26 05:15:19;;;;;;;12.90;11.55;;;;;;;19.46;82.03;100463.77;1750956;81;21036;-81
2022/06/26 05:17:47;;;;;;;14.15;11.30;;;;;;;19.54;81.94;100470.21;1731937;82;21010;-82
2022/06/26 05:20:16;;;;;;;15.58;11.95;;;;;;;19.63;81.86;100474.00;1718300;83;21105;-82
2022/06/26 05:22:44;;;;;;;12.20;11.00;;;;;;;19.68;81.76;100477.69;1729898;82;21042;-81
2022/06/26 05:25:12;;;;;;;11.97;10.32;;;;;;;19.75;81.69;100481.09;1726739;81;21149;-82
2022/06/26 05:27:39;;;;;;;11.95;10.48;;;;;;;19.82;81.51;100488.98;1723916;81;20925;-82
2022/06/26 05:30:08;;;;;;;12.37;10.32;;;;;;;19.89;81.41;100492.03;1713085;81;21036;-82
2022/06/26 05:32:37;;;;;;;12.82;10.40;;;;;;;19.99;81.33;100501.03;1714970;83;21477;-81
2022/06/26 05:35:06;;;;;;;12.07;10.78;;;;;;;20.08;81.12;100499.48;1718016;81;21060;-81
2022/06/26 05:37:34;;;;;;;11.70;10.40;;;;;;;20.18;80.98;100491.67;1695442;82;21126;-82
2022/06/26 05:40:03;;;;;;;11.55;10.40;;;;;;;20.25;80.75;100494.22;1768373;80;21574;-81
2022/06/26 05:42:33;;;;;;;10.72;9.63;;;;;;;20.32;80.61;100494.62;1745061;81;21551;-81
2022/06/26 05:45:00;;;;;;;10.82;9.83;;;;;;;20.39;80.56;100488.69;1756220;80;21025;-81
2022/06/26 05:47:27;;;;;;;11.25;9.05;;;;;;;20.46;80.54;100491.73;1762060;79;21047;-81
2022/06/26 05:50:09;;;;;;;11.60;9.43;;;;;;;20.53;80.27;100494.31;1698236;80;21214;-83
2022/06/26 05:52:38;;;;;;;10.75;9.30;;;;;;;20.61;80.10;100501.71;1771148;80;21006;-84
2022/06/26 05:55:22;;;;;;;9.73;8.68;;;;;;;20.69;79.85;100500.64;1739246;81;21043;-81
2022/06/26 05:57:54;;;;;;;10.70;9.70;;;;;;;20.77;79.64;100502.22;1706508;80;20903;-81
2022/06/26 06:00:23;;;;;;;12.45;10.18;;;;;;;20.85;79.43;100501.63;1742316;81;21024;-81
2022/06/26 06:02:52;;;;;;;11.65;10.08;;;;;;;20.90;79.29;100506.95;1743114;80;21115;-82
2022/06/26 06:05:22;;;;;;;11.28;9.43;;;;;;;20.98;79.13;100508.15;1762769;80;21068;-80
2022/06/26 06:07:49;;;;;;;10.85;9.13;;;;;;;21.03;79.01;100512.63;1742653;81;21087;-84
2022/06/26 06:10:18;;;;;;;12.28;9.23;;;;;;;21.09;78.74;100514.81;1750439;80;21050;-85
2022/06/26 06:12:48;;;;;;;11.53;9.17;;;;;;;21.15;78.63;100512.52;1756418;80;21038;-79
2022/06/26 06:15:16;;;;;;;11.55;9.40;;;;;;;21.22;78.47;100519.53;1744771;80;21121;-81
2022/06/26 06:17:47;;;;;;;10.63;9.63;;;;;;;21.30;78.27;100515.77;1743019;81;20992;-81
2022/06/26 06:20:20;;;;;;;10.05;9.05;;;;;;;21.38;78.27;100520.03;1745215;81;21004;-82
2022/06/26 06:22:56;;;;;;;11.28;9.18;;;;;;;21.49;78.13;100519.66;1761207;81;20986;-83
2022/06/26 06:25:23;;;;;;;9.13;8.28;;;;;;;21.57;77.95;100517.23;1744226;81;21000;-79
2022/06/26 06:27:50;;;;;;;9.85;8.90;;;;;;;21.66;77.66;100524.95;1743105;81;21088;-79
2022/06/26 06:30:20;;;;;;;10.98;8.88;;;;;;;21.74;77.58;100524.69;1755524;81;26282;-79
2022/06/26 06:32:48;;;;;;;10.18;9.18;;;;;;;21.81;77.21;100525.05;1742918;81;20975;-80
2022/06/26 06:35:18;;;;;;;13.53;8.95;;;;;;;21.87;77.08;100521.03;1741485;81;21024;-79
2022/06/26 06:37:46;;;;;;;10.82;9.38;;;;;;;21.96;77.10;100520.26;1749546;81;21056;-79
2022/06/26 06:40:14;;;;;;;10.05;8.95;;;;;;;22.04;76.80;100522.65;1748491;81;21557;-79
2022/06/26 06:42:43;;;;;;;10.88;8.88;;;;;;;22.12;76.50;100529.19;1743069;80;21036;-85
2022/06/26 06:45:12;;;;;;;9.25;8.43;;;;;;;22.19;76.28;100525.88;1754650;80;21567;-78
2022/06/26 06:47:54;;;;;;;11.15;8.75;;;;;;;22.27;76.13;100526.08;1766967;79;20996;-79
2022/06/26 06:50:40;;;;;;;10.58;8.48;;;;;;;22.36;75.91;100527.12;1772168;80;21050;-80
2022/06/26 06:53:09;;;;;;;11.25;8.80;;;;;;;22.45;75.46;100523.70;1770369;79;21151;-80
2022/06/26 06:55:36;;;;;;;9.98;8.60;;;;;;;22.53;75.33;100521.72;1764973;79;21049;-79
2022/06/26 06:58:05;;;;;;;11.15;8.80;;;;;;;22.64;75.06;100526.11;1714130;83;21101;-80
2022/06/26 07:00:34;;;;;;;9.78;8.38;;;;;;;22.74;74.68;100523.02;1766126;80;21323;-79
2022/06/26 07:03:05;;;;;;;9.88;8.05;;;;;;;22.86;74.33;100521.10;1769383;79;21010;-79
2022/06/26 07:05:33;;;;;;;9.88;8.55;;;;;;;22.97;74.01;100526.89;1760459;80;22401;-79
2022/06/26 07:08:02;;;;;;;9.23;8.33;;;;;;;23.06;73.72;100525.61;1770111;79;21054;-79
2022/06/26 07:10:29;;;;;;;9.90;8.75;;;;;;;23.14;73.27;100522.23;1748811;80;20987;-80
2022/06/26 07:13:00;;;;;;;9.00;7.92;;;;;;;23.19;72.77;100524.02;1764273;79;21447;-80
2022/06/26 07:15:28;;;;;;;10.53;7.85;;;;;;;23.27;72.70;100520.18;1771763;80;21101;-80
2022/06/26 07:17:57;;;;;;;8.43;7.53;;;;;;;23.34;72.18;100519.16;1765326;79;21162;-78
2022/06/26 07:20:25;;;;;;;8.60;7.53;;;;;;;23.37;71.68;100518.39;1714294;82;21511;-79
2022/06/26 07:22:53;;;;;;;8.85;7.97;;;;;;;23.44;71.49;100511.98;1759612;80;20999;-80
2022/06/26 07:25:22;;;;;;;8.68;7.58;;;;;;;23.50;70.97;100509.25;1768459;79;21326;-79
2022/06/26 07:27:55;;;;;;;8.40;7.60;;;;;;;23.54;70.51;100510.69;1750989;79;21024;-80
2022/06/26 07:30:22;;;;;;;10.78;7.78;;;;;;;23.61;70.67;100509.14;1742653;79;21128;-80
2022/06/26 07:34:12;;;;;;;9.48;7.30;;;;;;;23.70;70.46;100508.33;1757666;80;21039;-80
2022/06/26 07:35:35;;;;;;;11.80;8.05;;;;;;;23.83;69.97;100508.06;1746250;81;21499;-80
2022/06/26 07:38:04;;;;;;;11.75;8.43;;;;;;;23.93;69.68;100513.45;1750462;79;21032;-80
2022/06/26 07:40:32;;;;;;;8.78;7.97;;;;;;;24.05;69.55;100510.97;1767530;80;20979;-80
2022/06/26 07:43:01;;;;;;;9.10;8.00;;;;;;;24.16;69.29;100510.82;1765457;80;21961;-80
2022/06/26 07:45:30;;;;;;;11.08;8.00;;;;;;;24.29;68.98;100507.02;1773687;79;21026;-81
2022/06/26 07:47:59;;;;;;;9.18;8.30;;;;;;;24.35;68.53;100507.28;1750767;79;21441;-80
2022/06/26 07:50:27;;;;;;;8.63;7.72;;;;;;;24.41;68.45;100504.52;1765157;80;21431;-80
2022/06/26 07:52:55;;;;;;;9.68;8.05;;;;;;;24.50;68.50;100501.03;1774585;80;21030;-80
2022/06/26 07:55:22;;;;;;;9.60;7.90;;;;;;;24.60;68.32;100502.33;1762645;80;21205;-79
2022/06/26 07:57:49;;;;;;;7.83;7.22;;;;;;;24.68;67.80;100502.45;1738455;80;20992;-80
2022/06/26 08:00:16;;;;;;;8.35;7.03;;;;;;;24.77;67.52;100496.20;1729844;80;21540;-83
2022/06/26 08:02:44;;;;;;;8.23;7.37;;;;;;;24.86;67.17;100498.53;1772811;80;21058;-79
2022/06/26 08:05:12;;;;;;;10.88;7.83;;;;;;;24.99;67.13;100493.66;1766896;80;21025;-82
2022/06/26 08:07:39;;;;;;;8.18;7.22;;;;;;;25.13;66.91;100498.52;1773929;80;21153;-80
2022/06/26 08:10:07;;;;;;;7.80;7.10;;;;;;;25.23;66.03;100495.00;1773451;80;21496;-83
2022/06/26 08:12:35;;;;;;;8.48;7.62;;;;;;;25.26;65.70;100494.20;1759418;79;20999;-82
2022/06/26 08:15:03;;;;;;;8.83;6.92;;;;;;;25.36;65.81;100494.16;1760877;79;21014;-84
2022/06/26 08:17:31;;;;;;;7.10;6.40;;;;;;;25.50;65.49;100494.14;1758967;79;21504;-82
2022/06/26 08:19:58;;;;;;;7.70;5.72;;;;;;;25.59;64.89;100495.91;1753292;79;22022;-83
2022/06/26 08:22:25;;;;;;;7.12;6.47;;;;;;;25.68;64.06;100493.64;1764365;80;21041;-84
2022/06/26 08:24:53;;;;;;;7.25;6.03;;;;;;;25.82;63.83;100485.55;1775889;80;21042;-82
2022/06/26 08:27:20;;;;;;;6.70;5.17;;;;;;;26.00;63.59;100485.59;1759055;79;21568;-81
2022/06/26 08:29:47;;;;;;;5.95;5.35;;;;;;;26.16;62.92;100486.21;1760603;80;20991;-84
2022/06/26 08:32:15;;;;;;;6.70;5.75;;;;;;;26.32;62.31;100482.31;1770673;80;21065;-84
2022/06/26 08:34:43;;;;;;;6.78;5.87;;;;;;;26.46;61.72;100485.77;1775734;80;21022;-85
2022/06/26 08:37:10;;;;;;;7.08;5.37;;;;;;;26.62;61.08;100482.88;1760635;79;21030;-84
2022/06/26 08:39:39;;;;;;;7.70;5.00;;;;;;;26.79;60.69;100483.30;1770188;80;27411;-85
2022/06/26 08:42:06;;;;;;;5.35;4.58;;;;;;;26.99;59.87;100482.55;1759284;80;21081;-85
2022/06/26 08:44:34;;;;;;;5.53;4.72;;;;;;;27.11;58.72;100484.48;1753734;81;21117;-85
2022/06/26 08:47:03;;;;;;;7.37;4.30;;;;;;;27.27;58.55;100477.84;1758982;81;21858;-82
2022/06/26 08:49:31;;;;;;;4.87;4.40;;;;;;;27.47;58.01;100485.13;1770192;81;21070;-81
2022/06/26 08:51:59;;;;;;;5.00;4.47;;;;;;;27.67;57.25;100486.18;1765844;80;21026;-81
2022/06/26 08:54:28;;;;;;;5.05;4.45;;;;;;;27.77;56.67;100484.19;1740080;81;21057;-83
2022/06/26 08:56:55;;;;;;;;;;;;;;;27.93;56.36;100490.10;1762190;80;21180;-83
2022/06/26 08:59:23;;;;;;;7.30;4.78;;;;;;;28.10;55.08;100487.77;1731352;81;20190;-82
2022/06/26 09:01:50;;;;;;;5.22;4.20;;;;;;;28.22;55.11;100492.31;1741390;81;21026;-82
2022/06/26 09:04:17;;;;;;;6.03;4.35;;;;;;;28.31;54.60;100491.80;1727534;81;21078;-82
2022/06/26 09:06:45;;;;;;;4.50;4.10;;;;;;;28.40;54.07;100486.72;1727515;81;21554;-82
2022/06/26 09:09:24;;;;;;;6.87;4.47;;;;;;;28.49;53.66;100484.39;1727823;81;21097;-83
2022/06/26 09:11:53;;;;;;;;;;;;;;;28.57;53.17;100483.52;1730044;81;21011;-83
2022/06/26 09:14:21;;;;;;;7.15;4.00;;;;;;;28.67;52.33;100484.17;1727813;81;20190;-82
2022/06/26 09:16:50;;;;;;;6.08;4.30;;;;;;;28.81;52.35;100478.57;1727470;81;21097;-80
2022/06/26 09:19:23;;;;;;;5.10;4.50;;;;;;;28.95;51.87;100471.61;1727916;81;21011;-83
2022/06/26 09:21:52;;;;;;;5.58;4.00;;;;;;;29.02;51.02;100464.51;1727456;81;21889;-79
2022/06/26 09:24:21;;;;;;;4.75;4.03;;;;;;;29.14;50.66;100468.52;1736747;81;21096;-78
2022/06/26 09:27:06;;;;;;;4.25;3.35;;;;;;;29.30;50.03;100470.30;1732453;81;21050;-78
2022/06/26 09:29:33;;;;;;;3.80;3.40;;;;;;;29.46;48.88;100470.70;1727425;81;21504;-80
2022/06/26 09:32:13;;;;;;;4.08;3.52;;;;;;;29.50;47.80;100469.34;1728906;81;21073;-77
2022/06/26 09:34:51;;;;;;;4.45;3.12;;;;;;;29.60;47.48;100470.44;1681684;84;21250;-79
2022/06/26 09:37:23;;;;;;;6.87;3.42;;;;;;;29.73;46.50;100478.31;1686584;83;21068;-80
2022/06/26 09:40:03;;;;;;;5.58;3.50;;;;;;;29.83;45.64;100473.20;1706987;82;21557;-84
2022/06/26 09:42:34;;;;;;;4.50;3.30;;;;;;;29.96;45.38;100472.92;1713597;82;21274;-77
2022/06/26 09:45:02;;;;;;;4.25;3.20;;;;;;;30.05;44.57;100471.50;1754519;81;21036;-78
2022/06/26 09:47:36;;;;;;;4.67;3.40;;;;;;;30.11;43.69;100476.17;1754068;81;21234;-79
2022/06/26 09:50:07;;;;;;;5.47;3.30;;;;;;;30.17;43.14;100482.20;1754525;81;21076;-79
2022/06/26 09:52:35;;;;;;;3.37;3.08;;;;;;;30.27;42.70;100482.82;1733980;81;21090;-79
2022/06/26 09:55:06;;;;;;;5.60;3.22;;;;;;;30.36;42.58;100473.59;1706847;82;21503;-79
2022/06/26 09:57:35;;;;;;;4.03;2.95;;;;;;;30.49;42.56;100470.27;1717896;83;21004;-78
2022/06/26 10:00:06;;;;;;;6.62;2.98;;;;;;;30.62;41.90;100481.29;1729751;82;21162;-77
2022/06/26 10:08:13;;;;;;;3.95;3.52;;;;;;;30.93;40.63;100466.76;1692172;83;21117;-77
2022/06/26 10:10:42;;;;;;;6.05;2.90;;;;;;;31.01;40.05;100465.30;1713013;83;21043;-77
2022/06/26 10:13:11;;;;;;;;;;;;;;;31.15;39.92;100465.45;1737824;82;21183;-77
2022/06/26 10:16:04;;;;;;;4.62;2.77;;;;;;;31.25;39.03;100472.24;1713628;83;20180;-77
2022/06/26 10:18:58;;;;;;;4.50;3.17;;;;;;;31.32;39.13;100455.57;1719163;80;21544;-78
2022/06/26 10:21:26;;;;;;;3.25;2.90;;;;;;;31.47;38.73;100454.72;1722179;80;21524;-77
2022/06/26 10:24:03;;;;;;;3.90;2.77;;;;;;;31.59;38.41;100465.88;1729137;80;21082;-77
2022/06/26 10:26:31;;;;;;;3.12;2.70;;;;;;;31.70;38.02;100466.19;1711716;82;21075;-77
2022/06/26 10:29:05;;;;;;;4.62;2.50;;;;;;;31.84;37.42;100460.38;1711451;82;21083;-78
2022/06/26 10:31:49;;;;;;;2.75;2.35;;;;;;;31.91;37.00;100464.53;1711707;82;21557;-78
2022/06/26 10:34:21;;;;;;;3.75;2.42;;;;;;;32.02;36.84;100458.61;1728080;82;21088;-77
2022/06/26 10:37:15;;;;;;;2.83;2.62;;;;;;;32.22;36.59;100456.05;1714651;80;21517;-79
2022/06/26 10:39:52;;;;;;;4.55;2.65;;;;;;;32.38;36.25;100461.18;1732758;80;21163;-80
2022/06/26 10:45:29;;;;;;;4.20;3.10;;;;;;;32.79;35.50;100456.35;1741131;82;21102;-76
2022/06/26 10:48:00;;;;;;;3.55;2.80;;;;;;;33.13;35.11;100446.50;1740936;80;21026;-75
2022/06/26 10:50:37;;;;;;;2.72;2.50;;;;;;;33.50;34.60;100448.37;1741248;82;21010;-76
2022/06/26 10:53:18;;;;;;;2.72;2.45;;;;;;;33.77;34.50;100442.48;1736444;80;21139;-76
2022/06/26 10:55:57;;;;;;;3.40;2.33;;;;;;;34.01;33.81;100447.01;1738732;82;21030;-76
2022/06/26 10:58:39;;;;;;;3.35;2.30;;;;;;;34.17;33.33;100446.59;1721140;80;21492;-76
2022/06/26 11:01:14;;;;;;;2.22;1.98;;;;;;;34.29;32.90;100439.47;1742794;81;21475;-76
2022/06/26 11:03:44;;;;;;;2.80;2.47;;;;;;;34.40;32.27;100436.11;1750990;81;21063;-76
2022/06/26 11:06:16;;;;;;;3.70;2.37;;;;;;;34.54;32.25;100434.72;1754056;81;21502;-76
2022/06/26 11:08:50;;;;;;;2.25;2.05;;;;;;;34.72;32.20;100438.14;1730314;81;20995;-76
2022/06/26 11:11:25;;;;;;;2.42;2.22;;;;;;;34.84;31.75;100433.72;1731380;81;21034;-75
2022/06/26 11:14:05;;;;;;;3.58;1.98;;;;;;;34.93;31.27;100442.47;1722201;82;21087;-78
2022/06/26 11:16:43;;;;;;;3.25;2.35;;;;;;;35.01;31.16;100445.79;1718167;83;21558;-89
2022/06/26 11:19:28;;;;;;;;;;;;;;;35.07;31.02;100444.11;1743332;81;21148;-77
2022/06/26 11:22:11;;;;;;;3.77;2.00;;;;;;;35.16;30.13;100435.99;1722704;82;20199;-89
2022/06/26 11:24:55;;;;;;;3.05;2.00;;;;;;;35.22;30.51;100437.84;1731996;81;21013;-80
2022/06/26 11:27:25;;;;;;;2.42;2.22;;;;;;;35.35;30.17;100438.84;1707070;82;21064;-79
2022/06/26 11:29:55;;;;;;;2.58;2.02;;;;;;;35.41;30.00;100442.88;1709341;83;21664;-89
2022/06/26 11:32:24;;;;;;;3.35;2.10;;;;;;;35.58;30.00;100436.39;1710493;83;21084;-86
2022/06/26 11:34:54;;;;;;;3.65;2.45;;;;;;;35.77;29.60;100434.58;1715016;82;21079;-81
2022/06/26 11:37:35;;;;;;;4.28;2.33;;;;;;;36.03;29.70;100436.77;1708747;83;21061;-81
2022/06/26 11:40:14;;;;;;;4.03;2.40;;;;;;;36.25;29.32;100437.23;1674116;85;21097;-82
2022/06/26 11:42:42;;;;;;;4.97;3.10;;;;;;;36.17;28.93;100432.92;1701085;83;21072;-78
2022/06/26 11:45:10;;;;;;;2.23;2.00;;;;;;;36.16;29.02;100428.50;1689999;83;21221;-80
2022/06/26 11:47:40;;;;;;;4.33;2.20;;;;;;;36.13;28.75;100428.96;1694877;84;21830;-85